Time;durP1;ratioP1;P1;durP2;ratioP2;P2;SDS_P1;SDS_P2;PMS_P1;PMS_P2;Temp;Humidity;BMP_temperature;BMP_pressure;BME280_temperature;BME280_humidity;BME280_pressure;Samples;Min_cycle;Max_cycle;Signal;HPM_P1;HPM_P2
2021/05/29 00:01:12;;;;;;;7.83;2.83;;;13.50;72.90;;;;;;5043745;28;20412;-77
2021/05/29 00:03:38;;;;;;;6.60;2.80;;;13.50;73.20;;;;;;5029690;28;20216;-77
2021/05/29 00:06:04;;;;;;;5.50;2.77;;;13.60;73.20;;;;;;5037461;28;20792;-76
2021/05/29 00:08:30;;;;;;;5.00;2.90;;;13.60;73.00;;;;;;5054933;28;20251;-75
2021/05/29 00:10:57;;;;;;;4.10;2.70;;;13.60;72.90;;;;;;5037694;28;20459;-75
2021/05/29 00:13:25;;;;;;;4.77;2.40;;;13.60;72.70;;;;;;5045122;28;20245;-76
2021/05/29 00:15:52;;;;;;;4.50;2.57;;;13.50;73.00;;;;;;5022815;28;20470;-76
2021/05/29 00:18:18;;;;;;;5.03;2.80;;;13.50;73.50;;;;;;5037677;28;20862;-77
2021/05/29 00:20:44;;;;;;;3.00;2.33;;;13.50;73.30;;;;;;5051109;28;20990;-75
2021/05/29 00:23:14;;;;;;;5.47;3.10;;;13.50;73.30;;;;;;5037312;28;20424;-76
2021/05/29 00:25:40;;;;;;;3.43;2.67;;;13.50;73.60;;;;;;5050162;28;20423;-77
2021/05/29 00:28:06;;;;;;;5.03;2.23;;;13.50;73.60;;;;;;5037336;28;20890;-77
2021/05/29 00:30:33;;;;;;;3.23;2.57;;;13.50;73.50;;;;;;5037286;28;20909;-76
2021/05/29 00:32:59;;;;;;;5.27;2.63;;;13.50;73.60;;;;;;5028891;28;20435;-76
2021/05/29 00:35:24;;;;;;;4.60;2.67;;;13.50;74.00;;;;;;5031381;28;20820;-76
2021/05/29 00:37:51;;;;;;;4.97;3.40;;;13.50;74.20;;;;;;5044971;28;20311;-77
2021/05/29 00:40:17;;;;;;;4.00;3.07;;;13.60;73.70;;;;;;5042063;28;20439;-76
2021/05/29 00:42:43;;;;;;;4.10;2.57;;;13.60;73.70;;;;;;5056354;28;20521;-77
2021/05/29 00:45:09;;;;;;;3.17;2.57;;;13.60;74.00;;;;;;5062875;28;20445;-76
2021/05/29 00:47:35;;;;;;;4.77;2.80;;;13.50;74.00;;;;;;5038577;28;20238;-76
2021/05/29 00:50:10;;;;;;;4.40;2.90;;;13.40;74.30;;;;;;5047118;28;20588;-76
2021/05/29 00:52:37;;;;;;;5.20;3.40;;;13.40;74.60;;;;;;5039565;28;20428;-75
2021/05/29 00:55:06;;;;;;;4.40;3.20;;;13.40;74.90;;;;;;5042476;28;20537;-76
2021/05/29 00:57:32;;;;;;;3.30;2.60;;;13.30;75.50;;;;;;5037689;28;20444;-77
2021/05/29 00:59:58;;;;;;;4.03;3.00;;;13.30;75.50;;;;;;5042640;28;20422;-76
2021/05/29 01:02:24;;;;;;;3.13;2.57;;;13.40;75.20;;;;;;5050467;28;20457;-77
2021/05/29 01:04:50;;;;;;;6.03;2.97;;;13.40;74.60;;;;;;5034492;28;20879;-77
2021/05/29 01:07:17;;;;;;;5.57;3.37;;;13.40;74.60;;;;;;5032486;28;20447;-76
2021/05/29 01:09:44;;;;;;;5.03;2.63;;;13.40;74.90;;;;;;5029941;28;20185;-75
2021/05/29 01:12:12;;;;;;;5.03;3.17;;;13.30;75.10;;;;;;5029819;28;20427;-76
2021/05/29 01:14:46;;;;;;;4.27;2.77;;;13.20;75.70;;;;;;5026706;28;20469;-76
2021/05/29 01:17:11;;;;;;;4.30;3.23;;;13.20;76.10;;;;;;5032324;28;20444;-76
2021/05/29 01:19:37;;;;;;;4.87;3.57;;;13.20;76.20;;;;;;5030512;28;20485;-76
2021/05/29 01:22:07;;;;;;;4.10;2.70;;;13.10;76.50;;;;;;5030157;28;20219;-75
2021/05/29 01:24:33;;;;;;;6.03;2.97;;;13.10;76.80;;;;;;5041544;28;20227;-78
2021/05/29 01:26:59;;;;;;;3.20;2.43;;;13.20;76.40;;;;;;5035329;28;20450;-76
2021/05/29 01:29:25;;;;;;;3.70;2.57;;;13.10;76.40;;;;;;5047335;28;20939;-77
2021/05/29 01:32:00;;;;;;;4.50;2.63;;;13.10;76.50;;;;;;5029265;28;20284;-77
2021/05/29 01:34:34;;;;;;;4.37;2.97;;;13.10;76.50;;;;;;5028284;28;20495;-75
2021/05/29 01:37:04;;;;;;;3.13;2.63;;;13.00;76.50;;;;;;5037087;28;20521;-77
2021/05/29 01:39:31;;;;;;;5.07;2.93;;;13.00;76.80;;;;;;5048585;28;20487;-77
2021/05/29 01:41:59;;;;;;;6.00;3.37;;;13.00;77.00;;;;;;5049934;28;20436;-77
2021/05/29 01:44:25;;;;;;;5.30;2.77;;;13.00;77.30;;;;;;5053966;28;20419;-75
2021/05/29 01:46:52;;;;;;;4.43;3.00;;;13.00;77.60;;;;;;5035800;28;20471;-76
2021/05/29 01:49:18;;;;;;;10.00;5.70;;;13.00;77.60;;;;;;5027805;28;20432;-76
2021/05/29 01:51:44;;;;;;;9.23;4.47;;;12.90;77.40;;;;;;5037582;28;21221;-77
2021/05/29 01:54:14;;;;;;;7.50;4.23;;;12.90;78.10;;;;;;5032328;28;20464;-75
2021/05/29 01:56:40;;;;;;;4.00;3.40;;;12.90;78.30;;;;;;5029795;28;20536;-76
2021/05/29 01:59:05;;;;;;;5.57;3.30;;;12.90;78.10;;;;;;5034802;28;20915;-76
2021/05/29 02:01:32;;;;;;;4.27;3.17;;;12.90;78.30;;;;;;5036664;28;20553;-76
2021/05/29 02:03:58;;;;;;;5.80;3.30;;;12.80;78.10;;;;;;5039282;28;20263;-75
2021/05/29 02:06:23;;;;;;;5.20;3.20;;;12.70;78.90;;;;;;5050681;28;20493;-77
2021/05/29 02:08:49;;;;;;;7.30;3.60;;;12.60;79.30;;;;;;5039992;28;20696;-78
2021/05/29 02:11:15;;;;;;;10.40;4.80;;;12.50;79.70;;;;;;5045925;28;20213;-76
2021/05/29 02:13:42;;;;;;;7.67;4.70;;;12.50;80.20;;;;;;5026540;28;20192;-79
2021/05/29 02:16:09;;;;;;;7.47;4.70;;;12.60;80.30;;;;;;5035165;28;20220;-76
2021/05/29 02:18:36;;;;;;;5.60;4.40;;;12.60;80.60;;;;;;5042718;28;20430;-76
2021/05/29 02:21:03;;;;;;;10.10;5.37;;;12.60;80.60;;;;;;5047560;28;20522;-78
2021/05/29 02:23:49;;;;;;;7.63;5.17;;;12.60;80.60;;;;;;5045508;28;20422;-77
2021/05/29 02:26:18;;;;;;;9.33;5.13;;;12.60;80.90;;;;;;5049059;28;20463;-77
2021/05/29 02:28:49;;;;;;;6.27;4.33;;;12.60;80.90;;;;;;5032039;28;20452;-76
2021/05/29 02:31:15;;;;;;;7.30;4.23;;;12.50;81.10;;;;;;5038904;28;20454;-78
2021/05/29 02:33:42;;;;;;;7.50;5.03;;;12.50;81.70;;;;;;5051653;28;20484;-75
2021/05/29 02:36:08;;;;;;;10.67;6.23;;;12.40;82.10;;;;;;5041191;28;21115;-76
2021/05/29 02:38:35;;;;;;;9.03;5.37;;;12.40;82.40;;;;;;5048421;28;20430;-75
2021/05/29 02:41:03;;;;;;;5.63;4.13;;;12.30;82.70;;;;;;5051599;28;20427;-78
2021/05/29 02:43:29;;;;;;;7.30;4.73;;;12.30;83.00;;;;;;5038676;28;20514;-78
2021/05/29 02:45:55;;;;;;;5.97;3.70;;;12.30;83.10;;;;;;5042918;28;20463;-77
2021/05/29 02:48:21;;;;;;;6.40;4.13;;;12.30;83.30;;;;;;5035821;28;20813;-74
2021/05/29 02:50:47;;;;;;;7.27;3.90;;;12.30;83.40;;;;;;5043550;28;20193;-77
2021/05/29 02:53:15;;;;;;;7.50;4.23;;;12.30;83.40;;;;;;5048305;28;20295;-75
2021/05/29 02:55:41;;;;;;;5.97;4.07;;;12.20;83.70;;;;;;5060545;28;20466;-75
2021/05/29 02:58:08;;;;;;;4.80;3.93;;;12.10;84.00;;;;;;5042776;28;20446;-75
2021/05/29 03:00:40;;;;;;;6.97;4.17;;;12.10;84.30;;;;;;5048613;28;20420;-78
2021/05/29 03:03:07;;;;;;;7.97;4.10;;;12.10;84.60;;;;;;5046175;28;20420;-76
2021/05/29 03:05:34;;;;;;;4.70;3.53;;;12.10;84.70;;;;;;5044704;28;20513;-77
2021/05/29 03:08:00;;;;;;;6.57;3.20;;;12.00;84.70;;;;;;5051610;28;20956;-78
2021/05/29 03:10:25;;;;;;;5.70;3.63;;;12.00;85.00;;;;;;5041504;28;20543;-78
2021/05/29 03:12:53;;;;;;;5.73;3.63;;;12.00;85.00;;;;;;5046039;28;20189;-76
2021/05/29 03:15:23;;;;;;;5.93;4.00;;;11.90;85.30;;;;;;5032147;28;20208;-75
2021/05/29 03:17:50;;;;;;;7.47;4.00;;;11.80;85.50;;;;;;5048051;28;20443;-74
2021/05/29 03:20:19;;;;;;;6.33;3.97;;;11.80;85.70;;;;;;5038819;28;20454;-75
2021/05/29 03:22:45;;;;;;;6.37;3.90;;;11.80;85.70;;;;;;5045131;28;20478;-76
2021/05/29 03:25:13;;;;;;;6.37;3.57;;;11.70;85.70;;;;;;5044549;28;20431;-75
2021/05/29 03:27:39;;;;;;;5.93;4.30;;;11.70;86.20;;;;;;5044434;28;20399;-76
2021/05/29 03:30:11;;;;;;;4.87;3.80;;;11.70;86.30;;;;;;5043495;28;20517;-76
2021/05/29 03:32:38;;;;;;;6.77;4.30;;;11.70;86.30;;;;;;5030527;28;20445;-76
2021/05/29 03:35:05;;;;;;;5.43;4.10;;;11.70;86.50;;;;;;5044147;28;20980;-76
2021/05/29 03:37:31;;;;;;;8.43;4.63;;;11.70;86.80;;;;;;5030385;28;20505;-76
2021/05/29 03:39:57;;;;;;;7.17;4.40;;;11.70;86.90;;;;;;5044064;28;20415;-76
2021/05/29 03:42:22;;;;;;;7.47;4.63;;;11.70;86.90;;;;;;5039504;28;20294;-77
2021/05/29 03:44:48;;;;;;;6.27;4.30;;;11.80;86.80;;;;;;5037291;28;20189;-77
2021/05/29 03:47:14;;;;;;;6.73;4.40;;;11.70;86.90;;;;;;5041055;28;20527;-75
2021/05/29 03:49:40;;;;;;;5.50;4.70;;;11.80;86.90;;;;;;5043586;28;20186;-76
2021/05/29 03:52:07;;;;;;;6.90;4.30;;;11.80;86.80;;;;;;5039801;28;20185;-77
2021/05/29 03:54:33;;;;;;;9.10;4.47;;;11.80;86.60;;;;;;5038894;28;20679;-76
2021/05/29 03:56:59;;;;;;;6.30;4.30;;;11.90;86.50;;;;;;5043239;28;20473;-77
2021/05/29 03:59:25;;;;;;;6.80;3.97;;;11.90;86.30;;;;;;5022106;28;20428;-76
2021/05/29 04:01:51;;;;;;;10.20;3.90;;;11.90;86.20;;;;;;5049064;28;20196;-76
2021/05/29 04:04:18;;;;;;;5.83;4.10;;;11.90;86.00;;;;;;5039264;28;20422;-76
2021/05/29 04:06:44;;;;;;;7.30;4.70;;;12.00;85.70;;;;;;5027214;28;20212;-77
2021/05/29 04:09:10;;;;;;;6.50;4.40;;;11.90;86.20;;;;;;5030753;28;21072;-76
2021/05/29 04:11:36;;;;;;;7.93;4.90;;;11.90;86.30;;;;;;5044849;28;20499;-78
2021/05/29 04:14:02;;;;;;;6.70;4.63;;;11.80;86.30;;;;;;5030695;28;20192;-78
2021/05/29 04:16:28;;;;;;;8.20;4.90;;;11.80;86.80;;;;;;5034460;28;20435;-77
2021/05/29 04:18:54;;;;;;;9.60;4.13;;;11.80;86.90;;;;;;5049968;28;20839;-77
2021/05/29 04:21:20;;;;;;;7.77;4.43;;;11.80;87.00;;;;;;5049830;28;20427;-76
2021/05/29 04:23:46;;;;;;;6.00;4.33;;;11.90;87.00;;;;;;5048416;28;20254;-75
2021/05/29 04:26:12;;;;;;;7.97;5.40;;;11.90;87.00;;;;;;5035582;28;20213;-76
2021/05/29 04:28:39;;;;;;;8.20;5.47;;;11.90;87.00;;;;;;5038957;28;20431;-77
2021/05/29 04:31:05;;;;;;;9.67;5.03;;;12.00;87.10;;;;;;5036232;28;20205;-77
2021/05/29 04:33:31;;;;;;;8.73;4.80;;;12.00;86.80;;;;;;5050583;28;21133;-77
2021/05/29 04:35:57;;;;;;;7.37;5.10;;;12.00;86.60;;;;;;5052841;28;20505;-78
2021/05/29 04:38:23;;;;;;;7.67;5.33;;;12.00;86.80;;;;;;5054541;28;20573;-77
2021/05/29 04:40:49;;;;;;;7.93;5.03;;;12.00;86.90;;;;;;5050442;28;20442;-77
2021/05/29 04:43:16;;;;;;;8.60;5.70;;;12.10;86.80;;;;;;5046379;28;20432;-76
2021/05/29 04:45:41;;;;;;;7.63;5.60;;;12.10;86.60;;;;;;5039379;28;20495;-77
2021/05/29 04:48:09;;;;;;;8.50;5.33;;;12.20;86.50;;;;;;5056335;28;21200;-78
2021/05/29 04:53:19;;;;;;;9.70;5.40;;;12.30;86.00;;;;;;5035727;28;20996;-77
2021/05/29 04:55:45;;;;;;;8.00;5.40;;;12.40;85.90;;;;;;5050228;28;20467;-76
2021/05/29 04:58:11;;;;;;;6.47;4.80;;;12.40;85.60;;;;;;5034673;28;20193;-76
2021/05/29 05:00:36;;;;;;;9.67;5.63;;;12.40;85.60;;;;;;5030938;28;20649;-76
2021/05/29 05:03:03;;;;;;;7.13;4.87;;;12.50;85.70;;;;;;5032538;28;20550;-77
2021/05/29 05:05:28;;;;;;;8.53;5.70;;;12.50;85.60;;;;;;5039292;28;20189;-74
2021/05/29 05:07:54;;;;;;;8.77;5.70;;;12.50;85.30;;;;;;5044215;28;20875;-76
2021/05/29 05:10:20;;;;;;;8.63;5.60;;;12.50;85.30;;;;;;5031449;28;20201;-77
2021/05/29 05:12:46;;;;;;;9.70;6.00;;;12.60;85.00;;;;;;5033623;28;20407;-76
2021/05/29 05:15:13;;;;;;;7.80;5.60;;;12.70;84.30;;;;;;5056210;28;20225;-77
2021/05/29 05:17:39;;;;;;;9.27;6.20;;;12.60;83.60;;;;;;5042795;28;20436;-75
2021/05/29 05:20:05;;;;;;;12.70;5.80;;;12.70;83.30;;;;;;5048717;28;20418;-76
2021/05/29 05:22:31;;;;;;;7.53;5.40;;;12.70;83.10;;;;;;5049292;28;20177;-75
2021/05/29 05:24:57;;;;;;;8.33;5.00;;;12.80;82.70;;;;;;5034451;28;20453;-76
2021/05/29 05:27:22;;;;;;;10.87;5.97;;;12.90;82.20;;;;;;5057343;28;20219;-74
2021/05/29 05:29:48;;;;;;;9.17;5.00;;;12.90;81.90;;;;;;5043892;28;20199;-76
2021/05/29 05:32:14;;;;;;;8.50;5.03;;;12.90;81.10;;;;;;5039697;28;20211;-76
2021/05/29 05:34:39;;;;;;;8.57;5.60;;;12.90;80.90;;;;;;5048464;28;20587;-76
2021/05/29 05:37:07;;;;;;;9.23;5.90;;;12.90;81.20;;;;;;5048918;28;20215;-76
2021/05/29 05:39:33;;;;;;;8.13;5.17;;;12.90;81.40;;;;;;5043779;28;20180;-76
2021/05/29 05:41:58;;;;;;;9.10;5.20;;;13.00;81.20;;;;;;5057097;28;20469;-76
2021/05/29 05:44:24;;;;;;;9.00;4.90;;;13.10;80.50;;;;;;5054054;28;20650;-77
2021/05/29 05:46:50;;;;;;;11.47;5.20;;;13.30;79.50;;;;;;5035138;28;20624;-76
2021/05/29 05:49:16;;;;;;;8.57;5.20;;;13.30;79.00;;;;;;5040778;28;20425;-76
2021/05/29 05:51:42;;;;;;;11.83;5.60;;;13.20;78.40;;;;;;5051625;28;20658;-77
2021/05/29 05:54:07;;;;;;;7.80;4.77;;;13.20;78.90;;;;;;5032133;28;20227;-76
2021/05/29 05:56:33;;;;;;;9.73;4.57;;;13.10;78.70;;;;;;5046506;28;20574;-75
2021/05/29 05:58:59;;;;;;;8.87;5.07;;;13.00;79.90;;;;;;5019716;28;20196;-76
2021/05/29 06:01:26;;;;;;;8.60;5.13;;;13.00;79.50;;;;;;5033466;28;20185;-76
2021/05/29 06:03:51;;;;;;;8.00;4.50;;;13.10;78.90;;;;;;5046615;28;20427;-75
2021/05/29 06:06:17;;;;;;;7.10;4.80;;;13.10;79.00;;;;;;5027124;28;20443;-77
2021/05/29 06:08:43;;;;;;;5.83;4.30;;;13.20;78.70;;;;;;5039678;28;20191;-77
2021/05/29 06:11:09;;;;;;;7.23;4.57;;;13.20;78.40;;;;;;5040064;28;20549;-75
2021/05/29 06:21:27;;;;;;;8.83;5.00;;;13.60;75.70;;;;;;5048615;28;20430;-76
2021/05/29 06:23:53;;;;;;;6.10;5.03;;;13.60;75.70;;;;;;5039694;28;20734;-77
2021/05/29 06:26:19;;;;;;;7.33;4.97;;;13.60;75.10;;;;;;5032000;28;20205;-77
2021/05/29 06:28:45;;;;;;;5.20;3.80;;;13.60;74.90;;;;;;5031861;28;20192;-76
2021/05/29 06:31:11;;;;;;;5.90;4.13;;;13.60;75.50;;;;;;5037255;28;20545;-78
2021/05/29 06:33:36;;;;;;;10.10;5.30;;;13.70;74.30;;;;;;5040572;28;20420;-75
2021/05/29 06:36:04;;;;;;;5.80;4.27;;;13.70;74.00;;;;;;5044812;28;20236;-77
2021/05/29 06:38:30;;;;;;;6.13;4.03;;;13.70;74.60;;;;;;5043063;28;20462;-76
2021/05/29 06:40:56;;;;;;;6.80;4.43;;;13.90;74.80;;;;;;5040004;28;20423;-77
2021/05/29 06:43:21;;;;;;;6.50;4.60;;;14.10;73.50;;;;;;5039701;28;20191;-78
2021/05/29 06:45:47;;;;;;;7.10;4.87;;;14.00;72.60;;;;;;5052071;28;20517;-77
2021/05/29 06:48:15;;;;;;;6.40;4.63;;;13.90;73.50;;;;;;5052436;28;20249;-76
2021/05/29 06:50:47;;;;;;;7.13;4.53;;;14.00;73.50;;;;;;5045847;28;21078;-77
2021/05/29 06:53:16;;;;;;;5.77;4.00;;;14.20;72.10;;;;;;5034624;28;20438;-76
2021/05/29 07:01:04;;;;;;;7.50;3.77;;;14.60;68.50;;;;;;5042836;28;20422;-78
2021/05/29 07:03:29;;;;;;;4.50;3.33;;;14.50;68.50;;;;;;5048173;28;20437;-75
2021/05/29 07:05:55;;;;;;;4.63;3.33;;;14.60;68.80;;;;;;5035614;28;20240;-75
2021/05/29 07:08:21;;;;;;;4.23;3.13;;;14.60;68.00;;;;;;5044785;28;20231;-75
2021/05/29 07:10:47;;;;;;;3.70;2.80;;;14.80;66.10;;;;;;5030226;28;20617;-77
2021/05/29 07:13:12;;;;;;;3.73;3.00;;;15.00;65.70;;;;;;5034873;28;20196;-77
2021/05/29 07:15:39;;;;;;;4.97;3.20;;;15.10;63.40;;;;;;5041002;28;20804;-75
2021/05/29 07:18:11;;;;;;;5.30;3.00;;;15.20;62.20;;;;;;5045126;28;20270;-76
2021/05/29 07:20:40;;;;;;;4.10;3.10;;;15.10;62.80;;;;;;5029941;28;20455;-76
2021/05/29 07:23:06;;;;;;;4.47;2.83;;;15.10;63.50;;;;;;5044992;28;20915;-76
2021/05/29 07:25:32;;;;;;;5.00;3.70;;;15.20;63.70;;;;;;5030738;28;20438;-75
2021/05/29 07:27:59;;;;;;;4.17;3.47;;;15.30;62.50;;;;;;5043718;28;20439;-77
2021/05/29 07:30:25;;;;;;;9.13;3.67;;;15.30;62.60;;;;;;5040804;28;20914;-77
2021/05/29 07:32:51;;;;;;;3.40;2.70;;;15.40;61.20;;;;;;5030047;28;20435;-76
2021/05/29 07:35:17;;;;;;;3.90;3.00;;;15.40;61.30;;;;;;5031199;28;20820;-76
2021/05/29 07:37:43;;;;;;;4.90;3.27;;;15.50;61.30;;;;;;5035930;28;20431;-76
2021/05/29 07:40:09;;;;;;;3.87;3.20;;;15.40;61.30;;;;;;5050017;28;20783;-75
2021/05/29 07:42:35;;;;;;;5.37;3.43;;;15.50;61.30;;;;;;5045426;28;20563;-76
2021/05/29 07:45:03;;;;;;;4.37;2.93;;;15.70;61.00;;;;;;5030757;28;20510;-76
2021/05/29 07:47:28;;;;;;;5.00;2.80;;;15.80;59.90;;;;;;5046014;28;21127;-76
2021/05/29 07:49:54;;;;;;;7.73;3.30;;;15.90;58.70;;;;;;5047747;28;20431;-76
2021/05/29 07:52:20;;;;;;;7.87;2.73;;;15.90;57.80;;;;;;5044105;28;20185;-77
2021/05/29 07:54:46;;;;;;;6.70;2.97;;;15.90;57.30;;;;;;5041862;28;20214;-77
2021/05/29 07:57:11;;;;;;;3.50;2.80;;;15.80;58.10;;;;;;5027129;28;20211;-78
2021/05/29 07:59:38;;;;;;;5.73;3.07;;;16.00;58.40;;;;;;5021560;28;20520;-72
2021/05/29 08:02:05;;;;;;;4.97;2.70;;;16.10;58.20;;;;;;5033271;28;20193;-71
2021/05/29 08:04:31;;;;;;;4.73;2.83;;;16.20;56.10;;;;;;5039763;28;20441;-71
2021/05/29 08:06:57;;;;;;;3.50;2.67;;;16.20;56.60;;;;;;5021621;28;20464;-71
2021/05/29 08:09:23;;;;;;;3.37;2.50;;;16.20;56.90;;;;;;5030085;28;20555;-69
2021/05/29 08:11:49;;;;;;;4.43;2.80;;;16.30;55.00;;;;;;5034904;28;20636;-72
2021/05/29 08:14:16;;;;;;;5.17;2.37;;;16.20;52.40;;;;;;5030863;28;20193;-72
2021/05/29 08:16:42;;;;;;;3.60;2.00;;;16.20;52.10;;;;;;5030857;28;20475;-70
2021/05/29 08:19:11;;;;;;;2.53;2.40;;;16.40;53.30;;;;;;5033570;28;20496;-72
2021/05/29 08:21:46;;;;;;;2.40;2.20;;;16.50;52.90;;;;;;5057989;28;20488;-69
2021/05/29 08:24:12;;;;;;;4.53;2.40;;;16.50;53.60;;;;;;5056183;28;20797;-71
2021/05/29 08:26:39;;;;;;;3.10;2.40;;;16.60;53.20;;;;;;5051372;28;20469;-70
2021/05/29 08:29:06;;;;;;;4.27;2.80;;;16.70;53.70;;;;;;5055950;28;20415;-71
2021/05/29 08:31:32;;;;;;;5.00;3.10;;;16.60;54.00;;;;;;5045943;28;20483;-72
2021/05/29 08:33:59;;;;;;;4.40;2.80;;;16.60;54.20;;;;;;5033525;28;20427;-71
2021/05/29 08:36:25;;;;;;;4.70;3.13;;;16.70;53.40;;;;;;5017726;28;21005;-70
2021/05/29 08:38:50;;;;;;;3.70;3.10;;;16.80;54.80;;;;;;5039753;28;20422;-71
2021/05/29 08:41:17;;;;;;;3.63;2.80;;;16.80;54.10;;;;;;5036939;28;20180;-73
2021/05/29 08:43:43;;;;;;;4.90;2.60;;;16.80;52.60;;;;;;5039269;28;20181;-72
2021/05/29 08:46:09;;;;;;;7.43;3.50;;;16.90;52.90;;;;;;5042864;28;20462;-71
2021/05/29 08:48:37;;;;;;;3.93;3.10;;;16.90;53.20;;;;;;5040778;28;20468;-72
2021/05/29 08:51:18;;;;;;;5.40;2.67;;;16.70;54.10;;;;;;5035639;28;20500;-72
2021/05/29 08:53:49;;;;;;;4.20;2.60;;;16.50;52.80;;;;;;5048959;28;20828;-70
2021/05/29 08:56:16;;;;;;;4.30;2.63;;;16.40;53.00;;;;;;5042309;28;20989;-71
2021/05/29 08:58:42;;;;;;;3.60;3.10;;;16.50;53.40;;;;;;5025345;28;20430;-73
2021/05/29 09:01:09;;;;;;;6.90;3.20;;;16.60;53.80;;;;;;5043311;28;20499;-72
2021/05/29 09:03:39;;;;;;;5.30;2.30;;;16.70;54.50;;;;;;5028690;28;20415;-72
2021/05/29 09:06:06;;;;;;;4.27;2.30;;;16.80;50.20;;;;;;5048931;28;20454;-70
2021/05/29 09:08:31;;;;;;;3.53;2.60;;;16.90;50.20;;;;;;5040885;28;20796;-72
2021/05/29 09:10:59;;;;;;;3.20;2.30;;;16.90;49.10;;;;;;5031722;28;20434;-71
2021/05/29 09:13:27;;;;;;;2.90;2.30;;;16.80;49.90;;;;;;5049969;28;20187;-72
2021/05/29 09:15:55;;;;;;;5.10;2.60;;;16.70;49.10;;;;;;5044587;28;20528;-75
2021/05/29 09:18:37;;;;;;;4.17;2.47;;;16.80;49.90;;;;;;5040625;28;20547;-74
2021/05/29 09:21:31;;;;;;;6.13;3.20;;;17.10;49.70;;;;;;5037746;28;20491;-75
2021/05/29 09:23:58;;;;;;;3.83;2.33;;;17.20;49.10;;;;;;5036606;28;20430;-75
2021/05/29 09:26:42;;;;;;;4.40;3.03;;;17.20;48.30;;;;;;5039923;28;20505;-75
2021/05/29 09:29:16;;;;;;;3.47;2.20;;;17.20;47.80;;;;;;5044398;28;20462;-75
2021/05/29 09:32:03;;;;;;;5.87;3.20;;;17.30;48.70;;;;;;5043510;28;20457;-76
2021/05/29 09:34:34;;;;;;;3.73;2.63;;;17.60;48.10;;;;;;5029730;28;21084;-74
2021/05/29 09:37:10;;;;;;;4.33;2.50;;;17.60;48.10;;;;;;5041263;28;20544;-77
2021/05/29 09:39:38;;;;;;;6.00;3.00;;;17.70;48.60;;;;;;5042464;28;20426;-75
2021/05/29 09:42:06;;;;;;;5.60;2.43;;;17.90;49.30;;;;;;5037379;28;20423;-77
2021/05/29 09:44:33;;;;;;;11.80;2.60;;;17.70;49.70;;;;;;5035950;28;20576;-76
2021/05/29 09:47:00;;;;;;;3.20;2.90;;;17.70;49.40;;;;;;5033268;28;20453;-76
2021/05/29 09:49:42;;;;;;;4.17;2.80;;;17.40;50.90;;;;;;5043331;28;20869;-77
2021/05/29 09:52:35;;;;;;;3.43;2.80;;;17.60;50.60;;;;;;5040148;28;20437;-78
2021/05/29 09:55:13;;;;;;;4.23;3.23;;;17.70;50.60;;;;;;5018401;28;20488;-77
2021/05/29 09:57:53;;;;;;;5.80;3.00;;;17.90;50.70;;;;;;5026585;28;20448;-77
2021/05/29 10:00:19;;;;;;;4.30;2.60;;;17.80;51.60;;;;;;5038660;28;20478;-75
2021/05/29 10:03:02;;;;;;;3.87;2.60;;;17.90;51.60;;;;;;5023680;28;20424;-77
2021/05/29 10:05:30;;;;;;;6.40;3.07;;;17.70;52.10;;;;;;5045692;28;20499;-76
2021/05/29 10:07:56;;;;;;;3.80;2.60;;;17.50;52.20;;;;;;5049701;28;20506;-77
2021/05/29 10:10:22;;;;;;;6.20;3.40;;;17.50;52.40;;;;;;5029820;28;20437;-77
2021/05/29 10:12:48;;;;;;;4.13;3.47;;;17.50;52.80;;;;;;5032516;28;20435;-77
2021/05/29 10:15:15;;;;;;;5.47;3.43;;;17.80;51.40;;;;;;5034802;28;20503;-76
2021/05/29 10:17:44;;;;;;;8.13;3.40;;;17.80;52.40;;;;;;5037804;28;20748;-75
2021/05/29 10:20:11;;;;;;;3.37;2.40;;;18.20;51.00;;;;;;5053152;28;20418;-77
2021/05/29 10:22:36;;;;;;;5.47;2.80;;;18.10;49.90;;;;;;5053558;28;20420;-77
2021/05/29 10:25:10;;;;;;;4.20;2.90;;;17.60;50.50;;;;;;5053752;28;20514;-78
2021/05/29 10:27:37;;;;;;;4.30;2.70;;;17.60;51.00;;;;;;5044084;28;20231;-76
2021/05/29 10:30:04;;;;;;;9.10;3.17;;;18.00;51.30;;;;;;5032332;28;20732;-77
2021/05/29 10:32:30;;;;;;;3.30;2.77;;;18.50;49.40;;;;;;5036633;28;20451;-76
2021/05/29 10:35:04;;;;;;;9.40;3.40;;;18.50;50.10;;;;;;5031876;28;20473;-75
2021/05/29 10:37:41;;;;;;;4.53;3.20;;;18.60;49.70;;;;;;5029375;28;20194;-75
2021/05/29 10:40:21;;;;;;;4.80;3.40;;;19.10;46.60;;;;;;5045778;28;20421;-75
2021/05/29 10:43:07;;;;;;;5.70;2.70;;;19.20;45.40;;;;;;5037537;28;20782;-77
2021/05/29 10:45:51;;;;;;;4.40;2.70;;;19.30;46.10;;;;;;5034366;28;20426;-78
2021/05/29 10:48:24;;;;;;;4.40;2.50;;;20.00;45.30;;;;;;5039952;28;20474;-77
2021/05/29 10:50:58;;;;;;;4.70;2.63;;;20.00;42.20;;;;;;5055606;28;20515;-75
2021/05/29 10:53:53;;;;;;;5.20;2.43;;;20.00;41.90;;;;;;5034841;28;20458;-77
2021/05/29 10:56:19;;;;;;;4.63;2.30;;;19.50;42.00;;;;;;5031978;28;20537;-77
2021/05/29 10:59:15;;;;;;;3.30;2.27;;;19.10;42.70;;;;;;5023649;28;20438;-78
2021/05/29 11:01:50;;;;;;;5.43;2.80;;;19.40;43.10;;;;;;5024988;28;20925;-77
2021/05/29 11:04:19;;;;;;;7.83;2.20;;;19.30;43.20;;;;;;5028874;28;20415;-76
2021/05/29 11:06:50;;;;;;;3.40;2.70;;;19.00;43.20;;;;;;5043734;28;20448;-74
2021/05/29 11:09:18;;;;;;;3.07;2.53;;;19.30;43.00;;;;;;5041617;28;20440;-77
2021/05/29 11:14:21;;;;;;;3.47;2.00;;;19.70;42.60;;;;;;5032421;28;20498;-76
2021/05/29 11:16:51;;;;;;;3.77;2.27;;;19.50;43.20;;;;;;5032713;28;20196;-74
2021/05/29 11:19:17;;;;;;;2.67;1.80;;;19.20;43.00;;;;;;5036348;28;20923;-78
2021/05/29 11:22:04;;;;;;;3.30;1.90;;;18.80;42.40;;;;;;5052459;28;20415;-74
2021/05/29 11:24:34;;;;;;;4.57;2.50;;;19.20;42.20;;;;;;5045086;28;20423;-77
2021/05/29 11:27:04;;;;;;;4.30;2.33;;;19.50;41.90;;;;;;5032509;28;20446;-79
2021/05/29 11:29:30;;;;;;;2.67;2.20;;;19.80;41.60;;;;;;5030940;28;20421;-77
2021/05/29 11:31:56;;;;;;;6.53;2.37;;;20.20;41.40;;;;;;5032768;28;20471;-77
2021/05/29 11:34:22;;;;;;;8.03;2.27;;;19.80;40.80;;;;;;5040652;28;20932;-77
2021/05/29 11:36:48;;;;;;;2.53;1.53;;;19.40;39.80;;;;;;5036862;28;20443;-76
2021/05/29 11:39:19;;;;;;;4.00;1.80;;;19.00;38.30;;;;;;5030975;28;20196;-77
2021/05/29 11:41:44;;;;;;;4.23;1.57;;;19.00;39.60;;;;;;5032163;28;20186;-77
2021/05/29 11:44:22;;;;;;;1.93;1.80;;;18.80;39.40;;;;;;5031383;28;20419;-77
2021/05/29 11:46:47;;;;;;;2.97;1.60;;;18.90;39.10;;;;;;5034978;28;20709;-74
2021/05/29 11:49:14;;;;;;;3.40;1.90;;;19.50;38.00;;;;;;5039087;28;20427;-76
2021/05/29 11:51:42;;;;;;;2.37;1.13;;;19.70;37.50;;;;;;5050193;28;20234;-76
2021/05/29 11:54:18;;;;;;;4.63;1.90;;;19.20;38.60;;;;;;5051725;28;20424;-77
2021/05/29 11:56:46;;;;;;;4.77;1.70;;;19.10;38.20;;;;;;5047139;28;20823;-77
2021/05/29 11:59:17;;;;;;;2.70;1.67;;;19.60;37.20;;;;;;5025677;28;20426;-77
2021/05/29 12:01:46;;;;;;;2.90;1.70;;;19.60;36.70;;;;;;5039028;28;20419;-76
2021/05/29 12:04:17;;;;;;;3.33;1.60;;;19.70;36.80;;;;;;5026375;28;20763;-77
2021/05/29 12:06:59;;;;;;;1.80;1.30;;;20.10;34.50;;;;;;5040762;28;20474;-78
2021/05/29 12:09:27;;;;;;;2.40;1.53;;;20.80;34.10;;;;;;5033378;28;20421;-74
2021/05/29 12:11:57;;;;;;;2.10;1.67;;;20.40;34.40;;;;;;5048696;28;20426;-76
2021/05/29 12:14:25;;;;;;;1.60;1.30;;;19.60;33.90;;;;;;5041770;28;20457;-75
2021/05/29 12:16:56;;;;;;;1.50;1.23;;;19.80;34.80;;;;;;5042047;28;20455;-74
2021/05/29 12:19:35;;;;;;;3.40;1.50;;;19.70;35.20;;;;;;5054360;28;20485;-76
2021/05/29 12:22:14;;;;;;;2.70;1.30;;;19.60;34.30;;;;;;5052259;28;20431;-75
2021/05/29 12:24:47;;;;;;;1.57;1.20;;;19.60;34.00;;;;;;5032521;28;20996;-76
2021/05/29 12:27:18;;;;;;;5.53;1.60;;;20.10;33.10;;;;;;5043502;28;20444;-75
2021/05/29 12:29:44;;;;;;;2.10;1.23;;;20.30;34.90;;;;;;5040783;28;20604;-74
2021/05/29 12:32:27;;;;;;;2.67;1.50;;;20.50;35.10;;;;;;5037022;28;20480;-76
2021/05/29 12:34:53;;;;;;;2.23;1.47;;;20.30;35.90;;;;;;5049400;28;20467;-76
2021/05/29 12:37:31;;;;;;;2.27;1.30;;;20.40;34.50;;;;;;5043853;28;20948;-77
2021/05/29 12:40:08;;;;;;;2.27;1.50;;;20.50;33.20;;;;;;5044217;28;20547;-76
2021/05/29 12:42:54;;;;;;;1.97;1.47;;;20.40;36.40;;;;;;5040973;28;20419;-76
2021/05/29 12:45:26;;;;;;;2.87;2.03;;;20.10;35.70;;;;;;5036830;28;20510;-76
2021/05/29 12:47:55;;;;;;;1.90;1.60;;;19.90;36.80;;;;;;5036255;28;20608;-77
2021/05/29 12:50:25;;;;;;;3.10;1.60;;;20.00;37.40;;;;;;5042664;28;20428;-75
2021/05/29 12:52:51;;;;;;;1.77;1.50;;;20.10;37.60;;;;;;5046331;28;20441;-76
2021/05/29 12:55:26;;;;;;;2.17;1.40;;;20.30;35.60;;;;;;5049909;28;20466;-77
2021/05/29 12:57:53;;;;;;;1.83;1.40;;;19.60;37.40;;;;;;5025807;28;20462;-75
2021/05/29 13:09:17;;;;;;;1.53;1.20;;;20.60;36.40;;;;;;5039441;28;20426;-75
2021/05/29 13:11:44;;;;;;;2.10;1.60;;;19.70;38.00;;;;;;5019394;28;20421;-78
2021/05/29 13:14:13;;;;;;;7.23;1.50;;;19.10;39.00;;;;;;5044184;28;20450;-77
2021/05/29 13:16:52;;;;;;;2.00;1.50;;;19.50;38.20;;;;;;5041607;28;20485;-78
2021/05/29 13:19:21;;;;;;;2.00;1.40;;;19.40;38.40;;;;;;5039117;28;20445;-75